DLH6643 LMML-LFSB
Flight info
| Callsign | DLH6643 |
|---|---|
| Flight time | N/A |
| Altitude | 40000 |
| Route | GZO M622 SOPIR DCT PIVOP DCT GIANO DCT BETOT DCT POKAV DCT PODOX DCT SPEZI DCT PUNSA DCT LUMEL |
| Aircraft | A343/H-SDE2E3FGHIJ4J5M1RWXY/LB1D1 |
Departure
| Time | 2026-05-06 14:20 |
|---|---|
| Airport | Malta International Airport (LMML) |
Arrival
| Time | N/A |
|---|---|
| Airport | EuroAirport Basel–Mulhouse–Freiburg (LFSB) |
| Time | Latitude | Longitude | Altitude | Speed | Heading |
|---|---|---|---|---|---|
| 2026-05-06 13:41 | 35.84649 | 14.49494 | 263 ft | 0 kts | 225° |
| 2026-05-06 14:10 | 35.84645 | 14.49488 | 263 ft | 2 kts | 224° |
| 2026-05-06 14:10 | 35.84636 | 14.49471 | 263 ft | 2 kts | 248° |
| 2026-05-06 14:10 | 35.84638 | 14.49452 | 263 ft | 3 kts | 278° |
| 2026-05-06 14:11 | 35.84648 | 14.49426 | 263 ft | 4 kts | 301° |
| 2026-05-06 14:11 | 35.84668 | 14.49389 | 263 ft | 6 kts | 304° |
| 2026-05-06 14:11 | 35.84699 | 14.49345 | 263 ft | 6 kts | 314° |
| 2026-05-06 14:11 | 35.84705 | 14.49337 | 263 ft | 2 kts | 314° |
| 2026-05-06 14:12 | 35.84718 | 14.49320 | 263 ft | 4 kts | 314° |
| 2026-05-06 14:12 | 35.84742 | 14.49290 | 263 ft | 6 kts | 314° |
| 2026-05-06 14:12 | 35.84776 | 14.49247 | 263 ft | 8 kts | 314° |
| 2026-05-06 14:12 | 35.84820 | 14.49192 | 263 ft | 10 kts | 314° |
| 2026-05-06 14:13 | 35.84873 | 14.49125 | 263 ft | 12 kts | 315° |
| 2026-05-06 14:13 | 35.84908 | 14.49084 | 263 ft | 6 kts | 316° |
| 2026-05-06 14:13 | 35.84939 | 14.49042 | 263 ft | 8 kts | 309° |
| 2026-05-06 14:13 | 35.84971 | 14.48980 | 263 ft | 9 kts | 297° |
| 2026-05-06 14:14 | 35.84991 | 14.48900 | 263 ft | 11 kts | 285° |
| 2026-05-06 14:14 | 35.85010 | 14.48806 | 264 ft | 11 kts | 285° |
| 2026-05-06 14:14 | 35.85032 | 14.48719 | 267 ft | 10 kts | 289° |
| 2026-05-06 14:14 | 35.85055 | 14.48645 | 270 ft | 9 kts | 293° |
| 2026-05-06 14:15 | 35.85080 | 14.48584 | 272 ft | 7 kts | 300° |
| 2026-05-06 14:15 | 35.85111 | 14.48540 | 275 ft | 7 kts | 315° |
| 2026-05-06 14:15 | 35.85149 | 14.48494 | 276 ft | 9 kts | 313° |
| 2026-05-06 14:15 | 35.85203 | 14.48425 | 276 ft | 14 kts | 314° |
| 2026-05-06 14:16 | 35.85281 | 14.48326 | 276 ft | 19 kts | 314° |
| 2026-05-06 14:16 | 35.85383 | 14.48197 | 276 ft | 23 kts | 314° |
| 2026-05-06 14:16 | 35.85526 | 14.48070 | 276 ft | 27 kts | 336° |
| 2026-05-06 14:16 | 35.85629 | 14.48024 | 276 ft | 5 kts | 337° |
| 2026-05-06 14:17 | 35.85661 | 14.47987 | 276 ft | 7 kts | 293° |
| 2026-05-06 14:17 | 35.85644 | 14.47934 | 276 ft | 6 kts | 214° |
| 2026-05-06 14:17 | 35.85603 | 14.47942 | 276 ft | 7 kts | 151° |
| 2026-05-06 14:17 | 35.85560 | 14.47985 | 276 ft | 9 kts | 140° |
| 2026-05-06 14:18 | 35.85538 | 14.48010 | 276 ft | 0 kts | 133° |
| 2026-05-06 14:18 | 35.85537 | 14.48011 | 276 ft | 4 kts | 133° |
| 2026-05-06 14:19 | 35.85335 | 14.48263 | 276 ft | 85 kts | 135° |
| 2026-05-06 14:19 | 35.84721 | 14.49018 | 263 ft | 160 kts | 136° |
| 2026-05-06 14:19 | 35.83817 | 14.50177 | 448 ft | 209 kts | 130° |
| 2026-05-06 14:19 | 35.82752 | 14.51541 | 879 ft | 212 kts | 140° |
| 2026-05-06 14:20 | 35.81543 | 14.51973 | 1394 ft | 170 kts | 195° |
| 2026-05-06 14:20 | 35.80508 | 14.50898 | 1632 ft | 228 kts | 236° |
| 2026-05-06 14:20 | 35.80098 | 14.48888 | 2081 ft | 252 kts | 258° |
| 2026-05-06 14:20 | 35.79769 | 14.46742 | 2668 ft | 258 kts | 250° |
| 2026-05-06 14:21 | 35.79198 | 14.44640 | 3318 ft | 260 kts | 243° |
| 2026-05-06 14:21 | 35.78465 | 14.42608 | 3789 ft | 259 kts | 240° |
| 2026-05-06 14:21 | 35.77800 | 14.40566 | 3978 ft | 264 kts | 253° |
| 2026-05-06 14:21 | 35.77703 | 14.38286 | 3991 ft | 272 kts | 275° |
| 2026-05-06 14:22 | 35.78012 | 14.35982 | 4005 ft | 273 kts | 279° |
| 2026-05-06 14:22 | 35.78647 | 14.33770 | 3995 ft | 277 kts | 299° |
| 2026-05-06 14:22 | 35.79981 | 14.32065 | 3997 ft | 280 kts | 329° |
| 2026-05-06 14:22 | 35.81750 | 14.31063 | 3993 ft | 281 kts | 341° |
| 2026-05-06 14:23 | 35.83593 | 14.30227 | 3997 ft | 284 kts | 341° |
| 2026-05-06 14:23 | 35.85449 | 14.29382 | 4063 ft | 286 kts | 341° |
| 2026-05-06 14:23 | 35.87312 | 14.28516 | 4474 ft | 294 kts | 341° |
| 2026-05-06 14:23 | 35.89219 | 14.27620 | 5149 ft | 293 kts | 340° |
| 2026-05-06 14:24 | 35.91143 | 14.26709 | 5698 ft | 299 kts | 340° |
| 2026-05-06 14:24 | 35.93074 | 14.25787 | 6365 ft | 297 kts | 339° |
| 2026-05-06 14:24 | 35.94998 | 14.24829 | 6990 ft | 297 kts | 334° |
| 2026-05-06 14:24 | 35.96898 | 14.23824 | 7871 ft | 299 kts | 333° |
| 2026-05-06 14:25 | 35.98831 | 14.22829 | 8826 ft | 301 kts | 335° |
| 2026-05-06 14:25 | 36.00763 | 14.21865 | 9934 ft | 299 kts | 334° |
| 2026-05-06 14:25 | 36.02685 | 14.20887 | 10623 ft | 310 kts | 331° |
| 2026-05-06 14:25 | 36.04634 | 14.19585 | 11037 ft | 327 kts | 323° |
| 2026-05-06 14:26 | 36.06575 | 14.17974 | 11443 ft | 344 kts | 319° |
| 2026-05-06 14:26 | 36.08527 | 14.16204 | 12075 ft | 351 kts | 319° |
| 2026-05-06 14:26 | 36.10497 | 14.14377 | 12825 ft | 356 kts | 319° |
| 2026-05-06 14:26 | 36.12495 | 14.12533 | 13582 ft | 361 kts | 318° |
| 2026-05-06 14:27 | 36.14524 | 14.10683 | 14321 ft | 365 kts | 319° |
| 2026-05-06 14:27 | 36.16590 | 14.08823 | 15015 ft | 370 kts | 319° |
| 2026-05-06 14:27 | 36.18658 | 14.06976 | 15695 ft | 374 kts | 320° |
| 2026-05-06 14:27 | 36.20782 | 14.05090 | 16408 ft | 377 kts | 320° |
| 2026-05-06 14:28 | 36.22924 | 14.03191 | 17139 ft | 381 kts | 320° |
| 2026-05-06 14:28 | 36.25090 | 14.01270 | 17831 ft | 385 kts | 320° |
| 2026-05-06 14:28 | 36.27276 | 13.99328 | 18502 ft | 388 kts | 320° |
| 2026-05-06 14:28 | 36.29476 | 13.97372 | 19143 ft | 390 kts | 320° |
| 2026-05-06 14:29 | 36.31685 | 13.95406 | 19809 ft | 392 kts | 320° |
| 2026-05-06 14:29 | 36.33907 | 13.93427 | 20462 ft | 394 kts | 320° |
| 2026-05-06 14:29 | 36.36137 | 13.91437 | 21094 ft | 396 kts | 320° |
| 2026-05-06 14:29 | 36.38344 | 13.89466 | 21723 ft | 398 kts | 320° |
| 2026-05-06 14:30 | 36.40595 | 13.87455 | 22344 ft | 400 kts | 320° |
| 2026-05-06 14:30 | 36.42857 | 13.85431 | 22943 ft | 402 kts | 319° |
| 2026-05-06 14:30 | 36.45138 | 13.83388 | 23494 ft | 406 kts | 319° |
| 2026-05-06 14:30 | 36.47434 | 13.81331 | 23965 ft | 408 kts | 319° |
| 2026-05-06 14:31 | 36.49815 | 13.79373 | 24387 ft | 414 kts | 325° |
| 2026-05-06 14:31 | 36.52364 | 13.77665 | 24856 ft | 417 kts | 327° |
| 2026-05-06 14:31 | 36.54959 | 13.76027 | 25301 ft | 420 kts | 328° |
| 2026-05-06 14:31 | 36.57555 | 13.74441 | 25726 ft | 423 kts | 328° |
| 2026-05-06 14:32 | 36.60210 | 13.72844 | 26147 ft | 425 kts | 328° |
| 2026-05-06 14:32 | 36.62885 | 13.71242 | 26563 ft | 428 kts | 328° |
| 2026-05-06 14:32 | 36.65570 | 13.69631 | 26976 ft | 430 kts | 328° |
| 2026-05-06 14:32 | 36.68271 | 13.68004 | 27377 ft | 432 kts | 328° |
| 2026-05-06 14:33 | 36.70985 | 13.66364 | 27773 ft | 435 kts | 328° |
| 2026-05-06 14:33 | 36.73710 | 13.64712 | 28159 ft | 437 kts | 328° |
| 2026-05-06 14:33 | 36.76447 | 13.63050 | 28533 ft | 439 kts | 328° |
| 2026-05-06 14:33 | 36.79198 | 13.61377 | 28906 ft | 441 kts | 328° |
| 2026-05-06 14:34 | 36.81926 | 13.59716 | 29238 ft | 443 kts | 328° |
| 2026-05-06 14:34 | 36.84703 | 13.58024 | 29603 ft | 445 kts | 328° |
| 2026-05-06 14:34 | 36.87491 | 13.56324 | 29961 ft | 447 kts | 328° |
| 2026-05-06 14:34 | 36.90294 | 13.54613 | 30254 ft | 449 kts | 328° |
| 2026-05-06 14:35 | 36.93107 | 13.52896 | 30517 ft | 452 kts | 327° |
| 2026-05-06 14:35 | 36.95933 | 13.51169 | 30850 ft | 453 kts | 328° |
| 2026-05-06 14:35 | 36.98766 | 13.49438 | 31146 ft | 454 kts | 327° |
| 2026-05-06 14:35 | 37.01625 | 13.47684 | 31216 ft | 461 kts | 327° |
| 2026-05-06 14:36 | 37.04478 | 13.45933 | 31385 ft | 464 kts | 327° |
| 2026-05-06 14:36 | 37.07384 | 13.44152 | 31662 ft | 466 kts | 327° |
| 2026-05-06 14:36 | 37.10295 | 13.42368 | 31964 ft | 466 kts | 327° |
| 2026-05-06 14:36 | 37.13208 | 13.40583 | 32323 ft | 465 kts | 327° |
| 2026-05-06 14:37 | 37.16109 | 13.38802 | 32697 ft | 464 kts | 327° |
| 2026-05-06 14:37 | 37.19006 | 13.37022 | 33026 ft | 463 kts | 326° |
| 2026-05-06 14:37 | 37.21896 | 13.35244 | 33482 ft | 461 kts | 326° |
| 2026-05-06 14:37 | 37.24724 | 13.33505 | 33866 ft | 459 kts | 326° |
| 2026-05-06 14:38 | 37.27591 | 13.31740 | 34149 ft | 458 kts | 326° |
| 2026-05-06 14:38 | 37.30450 | 13.29978 | 34453 ft | 457 kts | 326° |
| 2026-05-06 14:38 | 37.33298 | 13.28222 | 34789 ft | 455 kts | 326° |
| 2026-05-06 14:38 | 37.36131 | 13.26474 | 35127 ft | 453 kts | 326° |